This is the latest recevied weather packets stored in our database for station/object LZ3SV-3. If no packets are shown the sender has not sent any weather packets the latest 10 day(s).
| Time | Temp. | Humidity | Pressure | Rain* | Wind** | Luminosity | Snow |
|---|---|---|---|---|---|---|---|
| 1778232702 | 20° C | 66% | 991.5 hPa | - | - | - | - |
| 1778232102 | 20.56° C | 68% | 991.5 hPa | - | - | - | - |
| 1778228502 | 21.11° C | 69% | 991.4 hPa | - | - | - | - |
| 1778226702 | 21.67° C | 61% | 991.3 hPa | - | - | - | - |
| 1778224302 | 20.56° C | 64% | 991.4 hPa | - | - | - | - |
| 1778223702 | 20° C | 65% | 991.4 hPa | - | - | - | - |
| 1778218301 | 16.11° C | 85% | 991.4 hPa | - | - | - | - |
| 1778208701 | 12.22° C | 100% | 990.5 hPa | - | - | - | - |
| 1778207502 | 12.22° C | 100% | 990.6 hPa | - | - | - | - |
| 1778205101 | 12.22° C | 100% | 990.5 hPa | - | - | - | - |
| 1778202101 | 13.89° C | 100% | 990.7 hPa | - | - | - | - |
| 1778193701 | 15.56° C | 100% | 990.6 hPa | - | - | - | - |
| 1778182299 | 20.56° C | 61% | 990.2 hPa | - | - | - | - |
| 1778179299 | 21.11° C | 69% | 989.8 hPa | - | - | - | - |
| 1778174498 | 21.67° C | 64% | 989.4 hPa | - | - | - | - |
| 1778168497 | 23.33° C | 56% | 989.1 hPa | - | - | - | - |
| 1778167297 | 24.44° C | 44% | 989.1 hPa | - | - | - | - |
| 1778155296 | 30° C | 37% | 990.1 hPa | - | - | - | - |
| 1778153496 | 31.11° C | 34% | 990.4 hPa | - | - | - | - |
| 1778151696 | 29.44° C | 35% | 990.8 hPa | - | - | - | - |
| 1778149896 | 27.22° C | 41% | 990.9 hPa | - | - | - | - |
| 1778148097 | 25° C | 45% | 991.2 hPa | - | - | - | - |
| 1778145096 | 21.11° C | 52% | 991.6 hPa | - | - | - | - |
| 1778143896 | 21.11° C | 52% | 991.8 hPa | - | - | - | - |
| 1778142696 | 20° C | 56% | 991.8 hPa | - | - | - | - |
* Rain since midnight (hover to see other rain measurements)
** Current wind speed in m/s (hover to see current wind gust speed)